sensor_id;sensor_type;location;lat;lon;timestamp;temperature;humidity
49765;DHT22;35657;51.204;-4.130;2022-08-18T00:01:41;18.80;99.90
49765;DHT22;35657;51.204;-4.130;2022-08-18T00:04:10;18.70;99.90
49765;DHT22;35657;51.204;-4.130;2022-08-18T00:06:36;18.70;99.90
49765;DHT22;35657;51.204;-4.130;2022-08-18T00:09:05;18.60;99.90
49765;DHT22;35657;51.204;-4.130;2022-08-18T00:11:35;18.60;99.90
49765;DHT22;35657;51.204;-4.130;2022-08-18T00:14:02;18.60;99.90
49765;DHT22;35657;51.204;-4.130;2022-08-18T00:16:28;18.60;99.90
49765;DHT22;35657;51.204;-4.130;2022-08-18T00:18:54;18.50;99.90
49765;DHT22;35657;51.204;-4.130;2022-08-18T00:21:19;18.50;99.90
49765;DHT22;35657;51.204;-4.130;2022-08-18T00:23:45;18.50;99.90
49765;DHT22;35657;51.204;-4.130;2022-08-18T00:26:11;18.50;99.90
49765;DHT22;35657;51.204;-4.130;2022-08-18T00:28:37;18.60;99.90
49765;DHT22;35657;51.204;-4.130;2022-08-18T00:31:04;18.70;99.90
49765;DHT22;35657;51.204;-4.130;2022-08-18T00:33:30;18.70;99.90
49765;DHT22;35657;51.204;-4.130;2022-08-18T00:35:56;18.70;99.90
49765;DHT22;35657;51.204;-4.130;2022-08-18T00:38:22;18.70;99.90
49765;DHT22;35657;51.204;-4.130;2022-08-18T00:40:49;18.70;99.90
49765;DHT22;35657;51.204;-4.130;2022-08-18T00:43:45;18.80;99.90
49765;DHT22;35657;51.204;-4.130;2022-08-18T00:46:27;18.80;99.90
49765;DHT22;35657;51.204;-4.130;2022-08-18T00:48:54;18.70;99.90
49765;DHT22;35657;51.204;-4.130;2022-08-18T00:51:56;18.60;99.90
49765;DHT22;35657;51.204;-4.130;2022-08-18T00:56:50;18.40;99.90
49765;DHT22;35657;51.204;-4.130;2022-08-18T00:59:27;18.40;99.90
49765;DHT22;35657;51.204;-4.130;2022-08-18T01:01:56;18.40;99.90
49765;DHT22;35657;51.204;-4.130;2022-08-18T01:04:50;18.30;99.90
49765;DHT22;35657;51.204;-4.130;2022-08-18T01:07:20;18.30;99.90
49765;DHT22;35657;51.204;-4.130;2022-08-18T01:09:50;18.30;99.90
49765;DHT22;35657;51.204;-4.130;2022-08-18T01:12:17;18.30;99.90
49765;DHT22;35657;51.204;-4.130;2022-08-18T01:14:43;18.20;99.90
49765;DHT22;35657;51.204;-4.130;2022-08-18T01:17:10;18.20;99.90
49765;DHT22;35657;51.204;-4.130;2022-08-18T01:19:55;18.20;99.90
49765;DHT22;35657;51.204;-4.130;2022-08-18T01:25:17;18.20;99.90
49765;DHT22;35657;51.204;-4.130;2022-08-18T01:28:04;18.20;99.90
49765;DHT22;35657;51.204;-4.130;2022-08-18T01:30:43;18.20;99.90
49765;DHT22;35657;51.204;-4.130;2022-08-18T01:33:09;18.30;99.90
49765;DHT22;35657;51.204;-4.130;2022-08-18T01:35:36;18.50;99.90
49765;DHT22;35657;51.204;-4.130;2022-08-18T01:38:05;18.60;99.90
49765;DHT22;35657;51.204;-4.130;2022-08-18T01:40:30;18.70;99.90
49765;DHT22;35657;51.204;-4.130;2022-08-18T01:42:57;18.70;99.90
49765;DHT22;35657;51.204;-4.130;2022-08-18T01:45:23;18.80;99.90
49765;DHT22;35657;51.204;-4.130;2022-08-18T01:47:49;18.80;99.90
49765;DHT22;35657;51.204;-4.130;2022-08-18T01:50:16;18.90;99.90
49765;DHT22;35657;51.204;-4.130;2022-08-18T01:52:42;18.90;99.90
49765;DHT22;35657;51.204;-4.130;2022-08-18T01:55:08;18.80;99.90
49765;DHT22;35657;51.204;-4.130;2022-08-18T01:57:38;18.60;99.90
49765;DHT22;35657;51.204;-4.130;2022-08-18T02:00:10;18.50;99.90
49765;DHT22;35657;51.204;-4.130;2022-08-18T02:02:36;18.50;99.90
49765;DHT22;35657;51.204;-4.130;2022-08-18T02:05:08;18.40;99.90
49765;DHT22;35657;51.204;-4.130;2022-08-18T02:07:36;18.40;99.90
49765;DHT22;35657;51.204;-4.130;2022-08-18T02:10:04;18.40;99.90
49765;DHT22;35657;51.204;-4.130;2022-08-18T02:12:32;18.40;99.90
49765;DHT22;35657;51.204;-4.130;2022-08-18T02:14:57;18.30;99.90
49765;DHT22;35657;51.204;-4.130;2022-08-18T02:17:23;18.30;99.90
49765;DHT22;35657;51.204;-4.130;2022-08-18T02:19:49;18.30;99.90
49765;DHT22;35657;51.204;-4.130;2022-08-18T02:22:17;18.30;99.90
49765;DHT22;35657;51.204;-4.130;2022-08-18T02:24:44;18.30;99.90
49765;DHT22;35657;51.204;-4.130;2022-08-18T02:27:12;18.20;99.90
49765;DHT22;35657;51.204;-4.130;2022-08-18T02:29:38;18.20;99.90
49765;DHT22;35657;51.204;-4.130;2022-08-18T02:32:05;18.20;99.90
49765;DHT22;35657;51.204;-4.130;2022-08-18T02:34:31;18.20;99.90
49765;DHT22;35657;51.204;-4.130;2022-08-18T02:36:59;18.30;99.90
49765;DHT22;35657;51.204;-4.130;2022-08-18T02:39:25;18.50;99.90
49765;DHT22;35657;51.204;-4.130;2022-08-18T02:41:50;18.60;99.90
49765;DHT22;35657;51.204;-4.130;2022-08-18T02:44:16;18.60;99.90
49765;DHT22;35657;51.204;-4.130;2022-08-18T02:46:42;18.60;99.90
49765;DHT22;35657;51.204;-4.130;2022-08-18T02:49:08;18.60;99.90
49765;DHT22;35657;51.204;-4.130;2022-08-18T02:51:35;18.70;99.90
49765;DHT22;35657;51.204;-4.130;2022-08-18T02:54:01;18.70;99.90
49765;DHT22;35657;51.204;-4.130;2022-08-18T02:56:29;18.80;99.90
49765;DHT22;35657;51.204;-4.130;2022-08-18T02:59:02;18.60;99.90
49765;DHT22;35657;51.204;-4.130;2022-08-18T03:01:32;18.50;99.90
49765;DHT22;35657;51.204;-4.130;2022-08-18T03:03:59;18.40;99.90
49765;DHT22;35657;51.204;-4.130;2022-08-18T03:06:25;18.30;99.90
49765;DHT22;35657;51.204;-4.130;2022-08-18T03:08:51;18.20;99.90
49765;DHT22;35657;51.204;-4.130;2022-08-18T03:11:23;18.20;99.90
49765;DHT22;35657;51.204;-4.130;2022-08-18T03:13:49;18.20;99.90
49765;DHT22;35657;51.204;-4.130;2022-08-18T03:16:15;18.20;99.90
49765;DHT22;35657;51.204;-4.130;2022-08-18T03:18:42;18.10;99.90
49765;DHT22;35657;51.204;-4.130;2022-08-18T03:21:15;18.10;99.90
49765;DHT22;35657;51.204;-4.130;2022-08-18T03:23:42;18.10;99.90
49765;DHT22;35657;51.204;-4.130;2022-08-18T03:26:10;18.10;99.90
49765;DHT22;35657;51.204;-4.130;2022-08-18T03:28:42;18.10;99.90
49765;DHT22;35657;51.204;-4.130;2022-08-18T03:31:09;18.10;99.90
49765;DHT22;35657;51.204;-4.130;2022-08-18T03:33:36;18.10;99.90
49765;DHT22;35657;51.204;-4.130;2022-08-18T03:36:14;18.10;99.90
49765;DHT22;35657;51.204;-4.130;2022-08-18T03:38:41;18.10;99.90
49765;DHT22;35657;51.204;-4.130;2022-08-18T03:41:09;18.10;99.90
49765;DHT22;35657;51.204;-4.130;2022-08-18T03:43:35;18.30;99.90
49765;DHT22;35657;51.204;-4.130;2022-08-18T03:46:03;18.40;99.90
49765;DHT22;35657;51.204;-4.130;2022-08-18T03:48:29;18.40;99.90
49765;DHT22;35657;51.204;-4.130;2022-08-18T03:51:03;18.50;99.90
49765;DHT22;35657;51.204;-4.130;2022-08-18T03:53:29;18.50;99.90
49765;DHT22;35657;51.204;-4.130;2022-08-18T03:55:54;18.50;99.90
49765;DHT22;35657;51.204;-4.130;2022-08-18T03:58:20;18.50;99.90
49765;DHT22;35657;51.204;-4.130;2022-08-18T04:00:46;18.50;99.90
49765;DHT22;35657;51.204;-4.130;2022-08-18T04:03:11;18.50;99.90
49765;DHT22;35657;51.204;-4.130;2022-08-18T04:05:40;18.40;99.90
49765;DHT22;35657;51.204;-4.130;2022-08-18T04:08:06;18.20;99.90
49765;DHT22;35657;51.204;-4.130;2022-08-18T04:10:32;18.20;99.90
49765;DHT22;35657;51.204;-4.130;2022-08-18T04:13:00;18.10;99.90
49765;DHT22;35657;51.204;-4.130;2022-08-18T04:15:30;18.10;99.90
49765;DHT22;35657;51.204;-4.130;2022-08-18T04:18:00;18.10;99.90
49765;DHT22;35657;51.204;-4.130;2022-08-18T04:20:30;18.10;99.90
49765;DHT22;35657;51.204;-4.130;2022-08-18T04:22:57;18.10;99.90
49765;DHT22;35657;51.204;-4.130;2022-08-18T04:25:23;18.10;99.90
49765;DHT22;35657;51.204;-4.130;2022-08-18T04:27:50;18.10;99.90
49765;DHT22;35657;51.204;-4.130;2022-08-18T04:30:16;18.10;99.90
49765;DHT22;35657;51.204;-4.130;2022-08-18T04:32:42;18.10;99.90
49765;DHT22;35657;51.204;-4.130;2022-08-18T04:35:08;18.00;99.90
49765;DHT22;35657;51.204;-4.130;2022-08-18T04:37:36;18.10;99.90
49765;DHT22;35657;51.204;-4.130;2022-08-18T04:40:04;18.10;99.90
49765;DHT22;35657;51.204;-4.130;2022-08-18T04:42:30;18.10;99.90
49765;DHT22;35657;51.204;-4.130;2022-08-18T04:44:55;18.00;99.90
49765;DHT22;35657;51.204;-4.130;2022-08-18T04:47:22;18.20;99.90
49765;DHT22;35657;51.204;-4.130;2022-08-18T04:49:48;18.20;99.90
49765;DHT22;35657;51.204;-4.130;2022-08-18T04:52:15;18.30;99.90
49765;DHT22;35657;51.204;-4.130;2022-08-18T04:55:00;18.30;99.90
49765;DHT22;35657;51.204;-4.130;2022-08-18T04:57:26;18.40;99.90
49765;DHT22;35657;51.204;-4.130;2022-08-18T04:59:53;18.40;99.90
49765;DHT22;35657;51.204;-4.130;2022-08-18T05:02:20;18.40;99.90
49765;DHT22;35657;51.204;-4.130;2022-08-18T05:04:46;18.50;99.90
49765;DHT22;35657;51.204;-4.130;2022-08-18T05:07:14;18.60;99.90
49765;DHT22;35657;51.204;-4.130;2022-08-18T05:09:41;18.40;99.90
49765;DHT22;35657;51.204;-4.130;2022-08-18T05:12:09;18.30;99.90
49765;DHT22;35657;51.204;-4.130;2022-08-18T05:14:41;18.30;99.90
49765;DHT22;35657;51.204;-4.130;2022-08-18T05:17:09;18.20;99.90
49765;DHT22;35657;51.204;-4.130;2022-08-18T05:19:35;18.20;99.90
49765;DHT22;35657;51.204;-4.130;2022-08-18T05:22:01;18.20;99.90
49765;DHT22;35657;51.204;-4.130;2022-08-18T05:24:29;18.10;99.90
49765;DHT22;35657;51.204;-4.130;2022-08-18T05:26:55;18.20;99.90
49765;DHT22;35657;51.204;-4.130;2022-08-18T05:29:21;18.20;99.90
49765;DHT22;35657;51.204;-4.130;2022-08-18T05:31:49;18.20;99.90
49765;DHT22;35657;51.204;-4.130;2022-08-18T05:34:16;18.20;99.90
49765;DHT22;35657;51.204;-4.130;2022-08-18T05:42:10;18.00;99.90
49765;DHT22;35657;51.204;-4.130;2022-08-18T05:44:48;18.00;99.90
49765;DHT22;35657;51.204;-4.130;2022-08-18T05:49:47;18.00;99.90
49765;DHT22;35657;51.204;-4.130;2022-08-18T05:54:53;18.00;99.90
49765;DHT22;35657;51.204;-4.130;2022-08-18T05:57:49;18.10;99.90
49765;DHT22;35657;51.204;-4.130;2022-08-18T06:00:18;18.20;99.90
49765;DHT22;35657;51.204;-4.130;2022-08-18T06:02:56;18.20;99.90
49765;DHT22;35657;51.204;-4.130;2022-08-18T06:08:13;18.20;99.90
49765;DHT22;35657;51.204;-4.130;2022-08-18T06:10:44;18.20;99.90
49765;DHT22;35657;51.204;-4.130;2022-08-18T06:13:11;18.10;99.90
49765;DHT22;35657;51.204;-4.130;2022-08-18T06:37:35;18.00;99.90
49765;DHT22;35657;51.204;-4.130;2022-08-18T06:40:26;18.10;99.90
49765;DHT22;35657;51.204;-4.130;2022-08-18T06:42:52;18.10;99.90
49765;DHT22;35657;51.204;-4.130;2022-08-18T06:45:21;18.20;99.90
49765;DHT22;35657;51.204;-4.130;2022-08-18T06:47:56;18.20;99.90
49765;DHT22;35657;51.204;-4.130;2022-08-18T06:50:40;18.30;99.90
49765;DHT22;35657;51.204;-4.130;2022-08-18T06:53:09;18.30;99.90
49765;DHT22;35657;51.204;-4.130;2022-08-18T06:55:38;18.40;99.90
49765;DHT22;35657;51.204;-4.130;2022-08-18T07:00:42;18.60;99.90
49765;DHT22;35657;51.204;-4.130;2022-08-18T07:03:14;18.60;99.90
49765;DHT22;35657;51.204;-4.130;2022-08-18T07:08:33;18.70;99.90
49765;DHT22;35657;51.204;-4.130;2022-08-18T07:11:21;18.70;99.90
49765;DHT22;35657;51.204;-4.130;2022-08-18T07:13:50;18.60;99.90
49765;DHT22;35657;51.204;-4.130;2022-08-18T07:19:06;18.80;99.90
49765;DHT22;35657;51.204;-4.130;2022-08-18T07:21:33;18.60;99.90
49765;DHT22;35657;51.204;-4.130;2022-08-18T07:24:38;18.60;99.90
49765;DHT22;35657;51.204;-4.130;2022-08-18T07:27:11;18.60;99.90
49765;DHT22;35657;51.204;-4.130;2022-08-18T07:32:28;18.50;99.90
49765;DHT22;35657;51.204;-4.130;2022-08-18T07:34:57;18.40;99.90
49765;DHT22;35657;51.204;-4.130;2022-08-18T07:43:04;18.50;99.90
49765;DHT22;35657;51.204;-4.130;2022-08-18T07:45:43;18.60;99.90
49765;DHT22;35657;51.204;-4.130;2022-08-18T07:50:52;18.80;99.90
49765;DHT22;35657;51.204;-4.130;2022-08-18T07:53:45;18.80;99.90
49765;DHT22;35657;51.204;-4.130;2022-08-18T07:56:26;18.90;99.90
49765;DHT22;35657;51.204;-4.130;2022-08-18T07:59:11;19.00;99.90
49765;DHT22;35657;51.204;-4.130;2022-08-18T08:02:12;19.20;99.90
49765;DHT22;35657;51.204;-4.130;2022-08-18T08:07:28;19.60;99.90
49765;DHT22;35657;51.204;-4.130;2022-08-18T08:12:34;20.00;99.90
49765;DHT22;35657;51.204;-4.130;2022-08-18T08:15:22;20.10;99.90
49765;DHT22;35657;51.204;-4.130;2022-08-18T08:18:17;20.10;99.90
49765;DHT22;35657;51.204;-4.130;2022-08-18T08:21:00;20.10;99.90
49765;DHT22;35657;51.204;-4.130;2022-08-18T08:32:02;19.90;99.90
49765;DHT22;35657;51.204;-4.130;2022-08-18T08:35:29;19.90;99.90
49765;DHT22;35657;51.204;-4.130;2022-08-18T08:37:55;19.80;99.90
49765;DHT22;35657;51.204;-4.130;2022-08-18T08:40:27;19.90;99.90
49765;DHT22;35657;51.204;-4.130;2022-08-18T08:45:31;19.90;99.90
49765;DHT22;35657;51.204;-4.130;2022-08-18T08:48:05;19.80;99.90
49765;DHT22;35657;51.204;-4.130;2022-08-18T08:50:48;19.90;99.90
49765;DHT22;35657;51.204;-4.130;2022-08-18T08:56:07;19.80;99.90
49765;DHT22;35657;51.204;-4.130;2022-08-18T08:58:41;19.60;99.90
49765;DHT22;35657;51.204;-4.130;2022-08-18T09:09:50;19.90;99.90
49765;DHT22;35657;51.204;-4.130;2022-08-18T09:23:12;20.00;99.90
49765;DHT22;35657;51.204;-4.130;2022-08-18T09:38:20;20.10;99.90
49765;DHT22;35657;51.204;-4.130;2022-08-18T09:41:18;20.30;99.90
49765;DHT22;35657;51.204;-4.130;2022-08-18T09:44:04;20.40;99.90
49765;DHT22;35657;51.204;-4.130;2022-08-18T09:51:56;20.50;99.90
49765;DHT22;35657;51.204;-4.130;2022-08-18T09:54:28;20.60;99.90
49765;DHT22;35657;51.204;-4.130;2022-08-18T09:57:32;20.90;99.90
49765;DHT22;35657;51.204;-4.130;2022-08-18T10:00:26;21.10;99.90
49765;DHT22;35657;51.204;-4.130;2022-08-18T10:13:18;21.80;99.90
49765;DHT22;35657;51.204;-4.130;2022-08-18T10:21:18;22.00;99.90
49765;DHT22;35657;51.204;-4.130;2022-08-18T10:24:13;22.10;99.90
49765;DHT22;35657;51.204;-4.130;2022-08-18T10:39:50;22.20;99.90
49765;DHT22;35657;51.204;-4.130;2022-08-18T10:42:27;22.30;99.90
49765;DHT22;35657;51.204;-4.130;2022-08-18T10:47:38;22.20;99.90
49765;DHT22;35657;51.204;-4.130;2022-08-18T10:50:27;22.10;99.90
49765;DHT22;35657;51.204;-4.130;2022-08-18T11:06:47;21.90;99.90
49765;DHT22;35657;51.204;-4.130;2022-08-18T11:09:25;21.90;99.90
49765;DHT22;35657;51.204;-4.130;2022-08-18T11:11:54;21.80;99.90
49765;DHT22;35657;51.204;-4.130;2022-08-18T11:17:30;22.00;99.90
49765;DHT22;35657;51.204;-4.130;2022-08-18T11:19:59;22.00;99.90
49765;DHT22;35657;51.204;-4.130;2022-08-18T11:22:29;22.10;99.90
49765;DHT22;35657;51.204;-4.130;2022-08-18T11:24:55;22.10;99.90
49765;DHT22;35657;51.204;-4.130;2022-08-18T11:27:24;22.20;99.90
49765;DHT22;35657;51.204;-4.130;2022-08-18T11:29:51;22.20;99.90
49765;DHT22;35657;51.204;-4.130;2022-08-18T11:35:09;22.30;99.90
49765;DHT22;35657;51.204;-4.130;2022-08-18T11:37:49;22.30;99.90
49765;DHT22;35657;51.204;-4.130;2022-08-18T11:45:32;22.10;99.90
49765;DHT22;35657;51.204;-4.130;2022-08-18T11:56:24;22.10;99.90
49765;DHT22;35657;51.204;-4.130;2022-08-18T11:58:58;22.00;99.90
49765;DHT22;35657;51.204;-4.130;2022-08-18T12:04:31;21.90;99.90
49765;DHT22;35657;51.204;-4.130;2022-08-18T12:12:03;21.90;99.90
49765;DHT22;35657;51.204;-4.130;2022-08-18T12:14:34;21.90;99.90
49765;DHT22;35657;51.204;-4.130;2022-08-18T12:17:16;21.90;99.90
49765;DHT22;35657;51.204;-4.130;2022-08-18T12:19:42;22.00;99.90
49765;DHT22;35657;51.204;-4.130;2022-08-18T12:22:20;22.10;99.90
49765;DHT22;35657;51.204;-4.130;2022-08-18T12:24:47;22.20;99.90
49765;DHT22;35657;51.204;-4.130;2022-08-18T12:27:19;22.20;99.90
49765;DHT22;35657;51.204;-4.130;2022-08-18T12:29:45;22.20;99.90
49765;DHT22;35657;51.204;-4.130;2022-08-18T12:32:11;22.40;99.90
49765;DHT22;35657;51.204;-4.130;2022-08-18T12:34:37;22.40;99.90
49765;DHT22;35657;51.204;-4.130;2022-08-18T12:37:03;22.50;99.90
49765;DHT22;35657;51.204;-4.130;2022-08-18T12:39:30;22.50;99.90
49765;DHT22;35657;51.204;-4.130;2022-08-18T12:41:57;22.50;99.90
49765;DHT22;35657;51.204;-4.130;2022-08-18T12:44:23;22.40;99.90
49765;DHT22;35657;51.204;-4.130;2022-08-18T12:46:49;22.40;99.90
49765;DHT22;35657;51.204;-4.130;2022-08-18T12:49:21;22.40;99.90
49765;DHT22;35657;51.204;-4.130;2022-08-18T12:51:48;22.40;99.90
49765;DHT22;35657;51.204;-4.130;2022-08-18T12:54:15;22.40;99.90
49765;DHT22;35657;51.204;-4.130;2022-08-18T12:56:49;22.40;99.90
49765;DHT22;35657;51.204;-4.130;2022-08-18T12:59:15;22.40;99.90
49765;DHT22;35657;51.204;-4.130;2022-08-18T13:01:41;22.40;99.90
49765;DHT22;35657;51.204;-4.130;2022-08-18T13:04:07;22.50;99.90
49765;DHT22;35657;51.204;-4.130;2022-08-18T13:06:36;22.40;99.90
49765;DHT22;35657;51.204;-4.130;2022-08-18T13:09:02;22.40;99.90
49765;DHT22;35657;51.204;-4.130;2022-08-18T13:11:28;22.40;99.90
49765;DHT22;35657;51.204;-4.130;2022-08-18T13:13:54;22.30;99.90
49765;DHT22;35657;51.204;-4.130;2022-08-18T13:16:21;22.20;99.90
49765;DHT22;35657;51.204;-4.130;2022-08-18T13:18:46;22.10;99.90
49765;DHT22;35657;51.204;-4.130;2022-08-18T13:21:14;22.00;99.90
49765;DHT22;35657;51.204;-4.130;2022-08-18T13:23:40;22.00;99.90
49765;DHT22;35657;51.204;-4.130;2022-08-18T13:26:08;22.00;99.90
49765;DHT22;35657;51.204;-4.130;2022-08-18T13:28:37;22.00;99.90
49765;DHT22;35657;51.204;-4.130;2022-08-18T13:31:05;21.90;99.90
49765;DHT22;35657;51.204;-4.130;2022-08-18T13:33:31;21.80;99.90
49765;DHT22;35657;51.204;-4.130;2022-08-18T13:35:57;21.80;99.90
49765;DHT22;35657;51.204;-4.130;2022-08-18T13:38:23;21.80;99.90
49765;DHT22;35657;51.204;-4.130;2022-08-18T13:40:51;21.70;99.90
49765;DHT22;35657;51.204;-4.130;2022-08-18T13:43:19;21.70;99.90
49765;DHT22;35657;51.204;-4.130;2022-08-18T13:45:46;21.60;99.90
49765;DHT22;35657;51.204;-4.130;2022-08-18T13:48:15;21.60;99.90
49765;DHT22;35657;51.204;-4.130;2022-08-18T13:50:42;21.50;99.90
49765;DHT22;35657;51.204;-4.130;2022-08-18T13:53:16;21.30;99.90
49765;DHT22;35657;51.204;-4.130;2022-08-18T13:55:47;21.10;99.90
49765;DHT22;35657;51.204;-4.130;2022-08-18T13:58:13;21.10;99.90
49765;DHT22;35657;51.204;-4.130;2022-08-18T14:00:40;21.20;99.90
49765;DHT22;35657;51.204;-4.130;2022-08-18T14:03:06;21.20;99.90
49765;DHT22;35657;51.204;-4.130;2022-08-18T14:05:33;21.20;99.90
49765;DHT22;35657;51.204;-4.130;2022-08-18T14:08:00;21.10;99.90
49765;DHT22;35657;51.204;-4.130;2022-08-18T14:10:26;21.10;99.90
49765;DHT22;35657;51.204;-4.130;2022-08-18T14:12:54;21.00;99.90
49765;DHT22;35657;51.204;-4.130;2022-08-18T14:15:22;21.00;99.90
49765;DHT22;35657;51.204;-4.130;2022-08-18T14:17:49;21.00;99.90
49765;DHT22;35657;51.204;-4.130;2022-08-18T14:20:15;21.00;99.90
49765;DHT22;35657;51.204;-4.130;2022-08-18T14:23:00;21.00;99.90
49765;DHT22;35657;51.204;-4.130;2022-08-18T14:25:44;20.90;99.90
49765;DHT22;35657;51.204;-4.130;2022-08-18T14:28:29;21.00;99.90
49765;DHT22;35657;51.204;-4.130;2022-08-18T14:30:56;21.10;99.90
49765;DHT22;35657;51.204;-4.130;2022-08-18T14:33:24;21.10;99.90
49765;DHT22;35657;51.204;-4.130;2022-08-18T14:35:50;21.20;99.90
49765;DHT22;35657;51.204;-4.130;2022-08-18T14:38:16;21.20;99.90
49765;DHT22;35657;51.204;-4.130;2022-08-18T14:40:44;21.20;99.90
49765;DHT22;35657;51.204;-4.130;2022-08-18T14:43:15;21.30;99.90
49765;DHT22;35657;51.204;-4.130;2022-08-18T14:45:43;21.40;99.90
49765;DHT22;35657;51.204;-4.130;2022-08-18T14:48:13;21.40;99.90
49765;DHT22;35657;51.204;-4.130;2022-08-18T14:50:41;21.20;99.90
49765;DHT22;35657;51.204;-4.130;2022-08-18T14:53:08;21.20;99.90
49765;DHT22;35657;51.204;-4.130;2022-08-18T14:55:34;21.10;99.90
49765;DHT22;35657;51.204;-4.130;2022-08-18T14:58:02;21.00;99.90
49765;DHT22;35657;51.204;-4.130;2022-08-18T15:00:28;21.00;99.90
49765;DHT22;35657;51.204;-4.130;2022-08-18T15:02:54;21.00;99.90
49765;DHT22;35657;51.204;-4.130;2022-08-18T15:05:22;21.00;99.90
49765;DHT22;35657;51.204;-4.130;2022-08-18T15:07:47;21.10;99.90
49765;DHT22;35657;51.204;-4.130;2022-08-18T15:10:14;21.00;99.90
49765;DHT22;35657;51.204;-4.130;2022-08-18T15:12:40;21.00;99.90
49765;DHT22;35657;51.204;-4.130;2022-08-18T15:15:09;21.00;99.90
49765;DHT22;35657;51.204;-4.130;2022-08-18T15:17:37;21.00;99.90
49765;DHT22;35657;51.204;-4.130;2022-08-18T15:20:08;21.00;99.90
49765;DHT22;35657;51.204;-4.130;2022-08-18T15:22:40;21.00;99.90
49765;DHT22;35657;51.204;-4.130;2022-08-18T15:25:24;20.90;99.90
49765;DHT22;35657;51.204;-4.130;2022-08-18T15:28:22;20.90;99.90
49765;DHT22;35657;51.204;-4.130;2022-08-18T15:30:50;21.00;99.90
49765;DHT22;35657;51.204;-4.130;2022-08-18T15:33:17;21.00;99.90
49765;DHT22;35657;51.204;-4.130;2022-08-18T15:35:44;21.10;99.90
49765;DHT22;35657;51.204;-4.130;2022-08-18T15:38:12;21.20;99.90
49765;DHT22;35657;51.204;-4.130;2022-08-18T15:40:48;21.30;99.90
49765;DHT22;35657;51.204;-4.130;2022-08-18T15:43:14;21.30;99.90
49765;DHT22;35657;51.204;-4.130;2022-08-18T15:45:43;21.20;99.90
49765;DHT22;35657;51.204;-4.130;2022-08-18T15:48:16;21.30;99.90
49765;DHT22;35657;51.204;-4.130;2022-08-18T15:50:43;21.20;99.90
49765;DHT22;35657;51.204;-4.130;2022-08-18T15:53:11;21.20;99.90
49765;DHT22;35657;51.204;-4.130;2022-08-18T15:55:38;21.10;99.90
49765;DHT22;35657;51.204;-4.130;2022-08-18T15:58:05;21.00;99.90
49765;DHT22;35657;51.204;-4.130;2022-08-18T16:00:31;21.00;99.90
49765;DHT22;35657;51.204;-4.130;2022-08-18T16:03:06;21.00;99.90
49765;DHT22;35657;51.204;-4.130;2022-08-18T16:05:37;21.00;99.90
49765;DHT22;35657;51.204;-4.130;2022-08-18T16:08:06;20.90;99.90
49765;DHT22;35657;51.204;-4.130;2022-08-18T16:10:34;20.90;99.90
49765;DHT22;35657;51.204;-4.130;2022-08-18T16:13:01;20.80;99.90
49765;DHT22;35657;51.204;-4.130;2022-08-18T16:15:32;20.90;99.90
49765;DHT22;35657;51.204;-4.130;2022-08-18T16:17:58;20.90;99.90
49765;DHT22;35657;51.204;-4.130;2022-08-18T16:20:25;20.90;99.90
49765;DHT22;35657;51.204;-4.130;2022-08-18T16:22:52;20.90;99.90
49765;DHT22;35657;51.204;-4.130;2022-08-18T16:25:18;20.80;99.90
49765;DHT22;35657;51.204;-4.130;2022-08-18T16:27:45;20.80;99.90
49765;DHT22;35657;51.204;-4.130;2022-08-18T16:30:24;20.80;99.90
49765;DHT22;35657;51.204;-4.130;2022-08-18T16:32:50;20.90;99.90
49765;DHT22;35657;51.204;-4.130;2022-08-18T16:35:17;20.90;99.90
49765;DHT22;35657;51.204;-4.130;2022-08-18T16:37:44;21.00;99.90
49765;DHT22;35657;51.204;-4.130;2022-08-18T16:40:15;20.90;99.90
49765;DHT22;35657;51.204;-4.130;2022-08-18T16:42:42;20.90;99.90
49765;DHT22;35657;51.204;-4.130;2022-08-18T16:45:08;20.90;99.90
49765;DHT22;35657;51.204;-4.130;2022-08-18T16:47:35;21.10;99.90
49765;DHT22;35657;51.204;-4.130;2022-08-18T16:50:10;21.10;99.90
49765;DHT22;35657;51.204;-4.130;2022-08-18T16:52:36;21.10;99.90
49765;DHT22;35657;51.204;-4.130;2022-08-18T16:55:04;21.00;99.90
49765;DHT22;35657;51.204;-4.130;2022-08-18T16:57:30;20.90;99.90
49765;DHT22;35657;51.204;-4.130;2022-08-18T17:00:14;20.80;99.90
49765;DHT22;35657;51.204;-4.130;2022-08-18T17:03:06;20.90;99.90
49765;DHT22;35657;51.204;-4.130;2022-08-18T17:06:04;20.80;99.90
49765;DHT22;35657;51.204;-4.130;2022-08-18T17:08:32;20.80;99.90
49765;DHT22;35657;51.204;-4.130;2022-08-18T17:11:00;20.80;99.90
49765;DHT22;35657;51.204;-4.130;2022-08-18T17:13:26;20.70;99.90
49765;DHT22;35657;51.204;-4.130;2022-08-18T17:15:52;20.80;99.90
49765;DHT22;35657;51.204;-4.130;2022-08-18T17:18:18;20.80;99.90
49765;DHT22;35657;51.204;-4.130;2022-08-18T17:20:45;20.80;99.90
49765;DHT22;35657;51.204;-4.130;2022-08-18T17:23:10;20.80;99.90
49765;DHT22;35657;51.204;-4.130;2022-08-18T17:25:37;20.80;99.90
49765;DHT22;35657;51.204;-4.130;2022-08-18T17:28:03;20.80;99.90
49765;DHT22;35657;51.204;-4.130;2022-08-18T17:30:32;20.80;99.90
49765;DHT22;35657;51.204;-4.130;2022-08-18T17:33:04;20.80;99.90
49765;DHT22;35657;51.204;-4.130;2022-08-18T17:35:36;20.80;99.90
49765;DHT22;35657;51.204;-4.130;2022-08-18T17:38:44;20.90;99.90
49765;DHT22;35657;51.204;-4.130;2022-08-18T17:41:07;21.00;99.90
49765;DHT22;35657;51.204;-4.130;2022-08-18T17:43:36;21.00;99.90
49765;DHT22;35657;51.204;-4.130;2022-08-18T17:46:13;21.10;99.90
49765;DHT22;35657;51.204;-4.130;2022-08-18T17:48:48;21.10;99.90
49765;DHT22;35657;51.204;-4.130;2022-08-18T17:51:28;21.10;99.90
49765;DHT22;35657;51.204;-4.130;2022-08-18T17:54:02;21.10;99.90
49765;DHT22;35657;51.204;-4.130;2022-08-18T17:56:37;21.00;99.90
49765;DHT22;35657;51.204;-4.130;2022-08-18T17:59:12;21.00;99.90
49765;DHT22;35657;51.204;-4.130;2022-08-18T18:01:41;20.90;99.90
49765;DHT22;35657;51.204;-4.130;2022-08-18T18:04:08;20.80;99.90
49765;DHT22;35657;51.204;-4.130;2022-08-18T18:06:43;20.70;99.90
49765;DHT22;35657;51.204;-4.130;2022-08-18T18:09:27;20.70;99.90
49765;DHT22;35657;51.204;-4.130;2022-08-18T18:11:53;20.60;99.90
49765;DHT22;35657;51.204;-4.130;2022-08-18T18:17:12;20.50;99.90
49765;DHT22;35657;51.204;-4.130;2022-08-18T18:19:39;20.50;99.90
49765;DHT22;35657;51.204;-4.130;2022-08-18T18:22:20;20.50;99.90
49765;DHT22;35657;51.204;-4.130;2022-08-18T18:27:28;20.40;99.90
49765;DHT22;35657;51.204;-4.130;2022-08-18T18:30:00;20.40;99.90
49765;DHT22;35657;51.204;-4.130;2022-08-18T18:32:50;20.40;99.90
49765;DHT22;35657;51.204;-4.130;2022-08-18T18:35:21;20.30;99.90
49765;DHT22;35657;51.204;-4.130;2022-08-18T18:37:58;20.30;99.90
49765;DHT22;35657;51.204;-4.130;2022-08-18T18:40:39;20.30;99.90
49765;DHT22;35657;51.204;-4.130;2022-08-18T18:52:06;20.50;99.90
49765;DHT22;35657;51.204;-4.130;2022-08-18T18:55:00;20.60;99.90
49765;DHT22;35657;51.204;-4.130;2022-08-18T19:00:19;20.60;99.90
49765;DHT22;35657;51.204;-4.130;2022-08-18T19:05:42;20.50;99.90
49765;DHT22;35657;51.204;-4.130;2022-08-18T19:13:30;20.20;99.90